createdAt,value
2022-07-27T00:00:48.643Z,18.80
2022-07-27T00:03:15.500Z,18.80
2022-07-27T00:05:42.482Z,18.70
2022-07-27T00:08:09.309Z,18.70
2022-07-27T00:10:37.189Z,18.60
2022-07-27T00:13:06.123Z,18.70
2022-07-27T00:15:36.215Z,18.60
2022-07-27T00:18:03.901Z,18.60
2022-07-27T00:20:32.334Z,18.50
2022-07-27T00:22:59.838Z,18.40
2022-07-27T00:25:27.726Z,18.50
2022-07-27T00:27:56.930Z,18.60
2022-07-27T00:30:24.945Z,18.60
2022-07-27T00:32:52.099Z,18.50
2022-07-27T00:35:19.363Z,18.50
2022-07-27T00:37:46.713Z,18.50
2022-07-27T00:40:13.770Z,18.50
2022-07-27T00:42:40.581Z,18.60
2022-07-27T00:45:08.377Z,18.60
2022-07-27T00:47:35.551Z,18.60
2022-07-27T00:50:03.072Z,18.60
2022-07-27T00:52:30.998Z,18.70
2022-07-27T00:54:59.328Z,18.60
2022-07-27T00:57:28.068Z,18.40
2022-07-27T00:59:55.231Z,18.60
2022-07-27T01:02:22.880Z,18.50
2022-07-27T01:04:53.526Z,18.40
2022-07-27T01:07:24.493Z,18.50
2022-07-27T01:09:57.301Z,18.50
2022-07-27T01:12:31.736Z,18.50
2022-07-27T01:14:59.977Z,18.50
2022-07-27T01:17:30.895Z,18.60
2022-07-27T01:19:58.805Z,18.70
2022-07-27T01:22:27.076Z,18.60
2022-07-27T01:24:54.014Z,18.50
2022-07-27T01:27:20.850Z,18.60
2022-07-27T01:29:48.037Z,18.70
2022-07-27T01:32:14.857Z,18.60
2022-07-27T01:34:41.773Z,18.50
2022-07-27T01:37:11.467Z,18.50
2022-07-27T01:39:38.292Z,18.50
2022-07-27T01:42:09.065Z,18.60
2022-07-27T01:44:36.544Z,18.50
2022-07-27T01:47:03.383Z,18.40
2022-07-27T01:49:41.289Z,18.50
2022-07-27T01:52:08.147Z,18.40
2022-07-27T01:54:35.265Z,18.40
2022-07-27T01:57:02.243Z,18.40
2022-07-27T01:59:29.120Z,18.40
2022-07-27T02:01:56.087Z,18.40
2022-07-27T02:04:24.935Z,18.40
2022-07-27T02:06:52.190Z,18.50
2022-07-27T02:09:20.936Z,18.50
2022-07-27T02:12:06.395Z,18.50
2022-07-27T02:14:33.253Z,18.50
2022-07-27T02:17:00.118Z,18.50
2022-07-27T02:19:28.353Z,18.50
2022-07-27T02:21:55.193Z,18.40
2022-07-27T02:24:22.013Z,18.40
2022-07-27T02:26:49.515Z,18.30
2022-07-27T02:29:16.851Z,18.20
2022-07-27T02:31:43.921Z,18.20
2022-07-27T02:34:11.026Z,18.10
2022-07-27T02:36:38.131Z,18.20
2022-07-27T02:39:05.434Z,18.10
2022-07-27T02:41:32.433Z,18.20
2022-07-27T02:43:59.757Z,18.10
2022-07-27T02:46:26.722Z,18.10
2022-07-27T02:48:53.729Z,18.00
2022-07-27T02:51:20.585Z,17.90
2022-07-27T02:53:47.420Z,17.90
2022-07-27T02:56:14.275Z,17.70
2022-07-27T02:58:41.128Z,17.60
2022-07-27T03:01:08.000Z,17.70
2022-07-27T03:03:37.008Z,17.60
2022-07-27T03:06:06.164Z,17.60
2022-07-27T03:08:33.126Z,17.70
2022-07-27T03:10:59.991Z,17.60
2022-07-27T03:13:27.005Z,17.60
2022-07-27T03:15:53.954Z,17.50
2022-07-27T03:18:21.841Z,17.60
2022-07-27T03:20:48.846Z,17.50
2022-07-27T03:23:18.044Z,17.30
2022-07-27T03:25:45.165Z,17.40
2022-07-27T03:28:12.236Z,17.30
2022-07-27T03:30:39.375Z,17.20
2022-07-27T03:33:06.476Z,17.20
2022-07-27T03:35:33.507Z,17.00
2022-07-27T03:38:00.386Z,16.90
2022-07-27T03:40:29.673Z,16.80
2022-07-27T03:42:56.906Z,16.70
2022-07-27T03:45:24.120Z,16.70
2022-07-27T03:47:51.380Z,16.70
2022-07-27T03:50:19.606Z,16.70
2022-07-27T03:52:46.450Z,16.70
2022-07-27T03:55:13.335Z,16.70
2022-07-27T03:57:40.425Z,16.80
2022-07-27T04:00:11.000Z,16.80
2022-07-27T04:02:38.262Z,16.60
2022-07-27T04:05:05.651Z,16.50
2022-07-27T04:07:32.665Z,16.30
2022-07-27T04:09:59.472Z,16.30
2022-07-27T04:12:26.398Z,16.30
2022-07-27T04:14:53.237Z,16.30
2022-07-27T04:17:54.636Z,16.20
2022-07-27T04:20:07.876Z,16.20
2022-07-27T04:22:34.753Z,16.20
2022-07-27T04:25:01.691Z,16.10
2022-07-27T04:27:28.694Z,16.20
2022-07-27T04:29:55.584Z,16.20
2022-07-27T04:32:22.534Z,16.20
2022-07-27T04:34:49.478Z,16.30
2022-07-27T04:37:16.320Z,16.30
2022-07-27T04:39:43.174Z,16.40
2022-07-27T04:42:10.001Z,16.40
2022-07-27T04:44:38.281Z,16.50
2022-07-27T04:47:05.221Z,16.70
2022-07-27T04:49:32.244Z,16.70
2022-07-27T04:51:59.299Z,16.70
2022-07-27T04:54:26.083Z,16.60
2022-07-27T04:56:52.933Z,16.60
2022-07-27T04:59:19.677Z,16.60
2022-07-27T05:01:46.554Z,16.70
2022-07-27T05:04:13.423Z,16.70
2022-07-27T05:06:40.511Z,16.70
2022-07-27T05:09:07.374Z,16.70
2022-07-27T05:11:34.303Z,16.60
2022-07-27T05:14:02.481Z,16.80
2022-07-27T05:16:29.567Z,16.90
2022-07-27T05:18:57.375Z,17.10
2022-07-27T05:21:25.252Z,17.00
2022-07-27T05:23:52.354Z,17.00
2022-07-27T05:26:19.592Z,17.10
2022-07-27T05:28:46.622Z,17.10
2022-07-27T05:31:13.689Z,17.10
2022-07-27T05:33:43.952Z,17.20
2022-07-27T05:36:15.203Z,17.30
2022-07-27T05:38:42.152Z,17.30
2022-07-27T05:41:10.695Z,17.40
2022-07-27T05:43:37.622Z,17.60
2022-07-27T05:46:04.557Z,17.70
2022-07-27T05:48:31.633Z,17.60
2022-07-27T05:50:58.590Z,17.60
2022-07-27T05:53:25.654Z,17.50
2022-07-27T05:55:59.381Z,17.70
2022-07-27T05:58:30.015Z,17.70
2022-07-27T06:00:57.860Z,17.90
2022-07-27T06:03:25.241Z,17.90
2022-07-27T06:05:52.751Z,17.80
2022-07-27T06:08:19.621Z,18.00
2022-07-27T06:10:46.525Z,18.20
2022-07-27T06:13:14.011Z,18.40
2022-07-27T06:15:40.964Z,18.50
2022-07-27T06:18:15.056Z,18.50
2022-07-27T06:20:43.235Z,18.40
2022-07-27T06:23:11.101Z,18.30
2022-07-27T06:25:38.070Z,18.50
2022-07-27T06:28:05.812Z,18.50
2022-07-27T06:30:33.480Z,18.70
2022-07-27T06:33:00.953Z,18.70
2022-07-27T06:35:28.240Z,18.80
2022-07-27T06:37:55.698Z,18.70
2022-07-27T06:40:24.509Z,18.80
2022-07-27T06:42:54.544Z,18.90
2022-07-27T06:45:22.046Z,19.00
2022-07-27T06:47:50.763Z,19.20
2022-07-27T06:50:20.458Z,19.30
2022-07-27T06:52:48.238Z,19.40
2022-07-27T06:55:15.522Z,19.60
2022-07-27T06:57:43.276Z,19.60
2022-07-27T07:00:11.366Z,19.70
2022-07-27T07:02:39.916Z,19.70
2022-07-27T07:05:07.170Z,20.00
2022-07-27T07:07:34.321Z,19.80
2022-07-27T07:10:01.273Z,19.80
2022-07-27T07:12:28.581Z,19.80
2022-07-27T07:14:55.915Z,19.80
2022-07-27T07:17:22.975Z,19.90
2022-07-27T07:19:49.981Z,19.90
2022-07-27T07:22:16.922Z,20.10
2022-07-27T07:24:44.042Z,20.10
2022-07-27T07:27:11.290Z,20.20
2022-07-27T07:29:38.300Z,20.40
2022-07-27T07:32:05.744Z,20.50
2022-07-27T07:34:32.796Z,20.60
2022-07-27T07:36:59.687Z,20.80
2022-07-27T07:39:31.405Z,20.90
2022-07-27T07:41:58.683Z,20.80
2022-07-27T07:44:25.539Z,20.90
2022-07-27T07:46:52.535Z,21.10
2022-07-27T07:49:33.258Z,21.10
2022-07-27T07:52:06.450Z,20.90
2022-07-27T07:54:33.287Z,21.00
2022-07-27T07:57:00.577Z,21.00
2022-07-27T07:59:27.593Z,21.20
2022-07-27T08:01:54.604Z,21.40
2022-07-27T08:04:21.524Z,21.40
2022-07-27T08:06:48.347Z,21.50
2022-07-27T08:09:17.087Z,21.40
2022-07-27T08:11:44.857Z,21.70
2022-07-27T08:14:11.689Z,22.00
2022-07-27T08:16:39.051Z,22.20
2022-07-27T08:19:06.177Z,22.50
2022-07-27T08:21:36.444Z,22.20
2022-07-27T08:24:03.894Z,22.20
2022-07-27T08:26:30.800Z,22.10
2022-07-27T08:28:59.467Z,22.10
2022-07-27T08:31:51.436Z,22.10
2022-07-27T08:34:18.896Z,22.20
2022-07-27T08:36:45.756Z,22.30
2022-07-27T08:39:41.176Z,22.60
2022-07-27T08:42:04.616Z,22.80
2022-07-27T08:44:33.312Z,23.00
2022-07-27T08:47:04.428Z,23.10
2022-07-27T08:49:42.924Z,23.40
2022-07-27T08:52:12.639Z,23.70
2022-07-27T08:54:40.994Z,24.00
2022-07-27T08:57:09.561Z,24.20
2022-07-27T08:59:37.182Z,24.60
2022-07-27T09:02:08.996Z,24.40
2022-07-27T09:04:36.120Z,24.90
2022-07-27T09:07:03.000Z,25.10
2022-07-27T09:09:46.674Z,25.20
2022-07-27T09:12:13.976Z,25.10
2022-07-27T09:14:41.965Z,25.00
2022-07-27T09:20:19.710Z,25.00
2022-07-27T09:22:57.165Z,25.50
2022-07-27T09:26:00.809Z,25.90
2022-07-27T09:28:13.819Z,26.00
2022-07-27T09:30:44.195Z,26.30
2022-07-27T09:33:11.207Z,26.30
2022-07-27T09:35:38.771Z,26.70
2022-07-27T09:38:20.840Z,27.00
2022-07-27T09:40:50.408Z,26.70
2022-07-27T09:44:05.648Z,26.40
2022-07-27T09:46:08.108Z,26.30
2022-07-27T09:48:36.471Z,25.80
2022-07-27T09:51:43.442Z,25.10
2022-07-27T09:53:54.810Z,25.20
2022-07-27T09:56:30.412Z,25.30
2022-07-27T09:58:59.316Z,25.80
2022-07-27T10:01:28.996Z,26.10
2022-07-27T10:03:58.002Z,26.20
2022-07-27T10:06:25.988Z,26.20
2022-07-27T10:08:55.614Z,26.10
2022-07-27T10:11:24.295Z,26.00
2022-07-27T10:13:53.073Z,25.80
2022-07-27T10:16:29.168Z,25.60
2022-07-27T10:19:12.583Z,25.50
2022-07-27T10:21:41.246Z,25.20
2022-07-27T10:24:10.975Z,25.90
2022-07-27T10:26:40.175Z,26.30
2022-07-27T10:29:13.473Z,26.60
2022-07-27T10:31:52.583Z,26.70
2022-07-27T10:34:40.552Z,26.50
2022-07-27T10:37:24.929Z,26.20
2022-07-27T10:40:12.648Z,26.00
2022-07-27T10:42:40.384Z,25.70
2022-07-27T10:45:13.537Z,25.30
2022-07-27T10:47:46.165Z,25.20
2022-07-27T10:50:16.032Z,25.30
2022-07-27T10:52:47.574Z,25.10
2022-07-27T10:55:34.254Z,25.30
2022-07-27T10:58:10.846Z,25.20
2022-07-27T11:01:05.113Z,25.70
2022-07-27T11:03:34.729Z,26.40
2022-07-27T11:07:00.234Z,26.70
2022-07-27T11:11:56.297Z,27.60
2022-07-27T11:14:30.249Z,27.50
2022-07-27T11:17:24.530Z,27.40
2022-07-27T11:19:58.046Z,26.70
2022-07-27T11:23:26.477Z,26.70
2022-07-27T11:25:26.385Z,26.20
2022-07-27T11:27:53.491Z,26.10
2022-07-27T11:30:28.706Z,26.00
2022-07-27T11:32:56.581Z,26.10
2022-07-27T11:35:24.187Z,26.00
2022-07-27T11:38:05.084Z,25.90
2022-07-27T11:43:37.129Z,26.40
2022-07-27T11:46:13.657Z,26.90
2022-07-27T11:49:05.497Z,27.30
2022-07-27T11:51:42.703Z,26.90
2022-07-27T11:54:20.237Z,28.00
2022-07-27T11:56:52.075Z,28.60
2022-07-27T11:59:23.209Z,28.40
2022-07-27T12:01:54.308Z,28.20
2022-07-27T12:04:29.376Z,28.70
2022-07-27T12:07:20.075Z,29.00
2022-07-27T12:09:52.829Z,29.20
2022-07-27T12:12:21.425Z,29.40
2022-07-27T12:15:44.607Z,29.40
2022-07-27T12:18:02.444Z,29.30
2022-07-27T12:20:34.258Z,28.80
2022-07-27T12:23:06.002Z,28.60
2022-07-27T12:25:33.572Z,28.50
2022-07-27T12:28:09.899Z,28.10
2022-07-27T12:30:36.936Z,28.00
2022-07-27T12:33:06.639Z,28.30
2022-07-27T12:35:47.987Z,28.40
2022-07-27T12:38:15.122Z,28.60
2022-07-27T12:41:00.309Z,29.00
2022-07-27T12:43:28.667Z,29.20
2022-07-27T12:45:56.252Z,29.70
2022-07-27T12:48:37.586Z,29.70
2022-07-27T12:51:07.017Z,30.20
2022-07-27T12:53:36.600Z,30.10
2022-07-27T12:56:10.013Z,30.80
2022-07-27T12:58:37.758Z,30.10
2022-07-27T13:01:05.992Z,29.40
2022-07-27T13:03:33.213Z,29.20
2022-07-27T13:06:07.869Z,28.80
2022-07-27T13:08:39.458Z,28.50
2022-07-27T13:11:06.257Z,28.30
2022-07-27T13:13:33.191Z,27.90
2022-07-27T13:16:00.145Z,28.00
2022-07-27T13:18:30.007Z,28.00
2022-07-27T13:20:56.982Z,28.00
2022-07-27T13:23:23.941Z,28.10
2022-07-27T13:25:51.933Z,28.10
2022-07-27T13:28:18.726Z,28.60
2022-07-27T13:30:45.670Z,29.10
2022-07-27T13:33:12.752Z,29.30
2022-07-27T13:35:39.552Z,29.00
2022-07-27T13:38:06.390Z,28.40
2022-07-27T13:40:33.382Z,27.90
2022-07-27T13:43:01.194Z,28.10
2022-07-27T13:45:28.103Z,27.90
2022-07-27T13:47:54.928Z,27.60
2022-07-27T13:50:22.356Z,27.70
2022-07-27T13:52:49.800Z,27.70
2022-07-27T13:55:17.930Z,27.90
2022-07-27T13:57:46.792Z,28.10
2022-07-27T14:00:14.670Z,28.30
2022-07-27T14:02:42.417Z,28.40
2022-07-27T14:05:12.897Z,28.50
2022-07-27T14:07:42.558Z,29.10
2022-07-27T14:10:30.221Z,29.30
2022-07-27T14:13:07.980Z,29.30
2022-07-27T14:15:50.735Z,29.40
2022-07-27T14:18:28.860Z,29.30
2022-07-27T14:21:02.898Z,29.40
2022-07-27T14:23:30.484Z,29.50
2022-07-27T14:25:59.146Z,29.40
2022-07-27T14:28:27.310Z,29.20
2022-07-27T14:30:55.464Z,28.90
2022-07-27T14:33:23.013Z,29.20
2022-07-27T14:35:50.126Z,29.10
2022-07-27T14:38:24.806Z,29.00
2022-07-27T14:40:58.986Z,28.80
2022-07-27T14:43:27.974Z,28.70
2022-07-27T14:45:55.643Z,28.70
2022-07-27T14:48:32.454Z,28.80
2022-07-27T14:51:09.901Z,29.00
2022-07-27T14:53:37.095Z,29.30
2022-07-27T14:56:04.440Z,29.00
2022-07-27T14:58:31.423Z,29.10
2022-07-27T15:00:58.530Z,29.40
2022-07-27T15:03:25.598Z,29.50
2022-07-27T15:05:52.733Z,29.30
2022-07-27T15:08:20.538Z,29.60
2022-07-27T15:10:48.752Z,29.60
2022-07-27T15:13:16.101Z,29.30
2022-07-27T15:15:43.041Z,29.60
2022-07-27T15:18:10.147Z,29.40
2022-07-27T15:20:37.116Z,29.40
2022-07-27T15:23:04.517Z,29.60
2022-07-27T15:25:31.457Z,29.20
2022-07-27T15:27:58.985Z,29.40
2022-07-27T15:30:26.060Z,29.00
2022-07-27T15:32:52.912Z,28.90
2022-07-27T15:35:19.910Z,29.40
2022-07-27T15:37:54.639Z,29.20
2022-07-27T15:40:38.568Z,29.60
2022-07-27T15:43:12.118Z,29.70
2022-07-27T15:45:44.094Z,29.50
2022-07-27T15:48:12.575Z,28.90
2022-07-27T15:50:41.565Z,29.10
2022-07-27T15:53:08.994Z,29.10
2022-07-27T15:55:37.887Z,29.00
2022-07-27T15:58:06.224Z,29.20
2022-07-27T16:00:39.100Z,29.30
2022-07-27T16:03:06.594Z,29.20
2022-07-27T16:05:33.648Z,28.90
2022-07-27T16:08:00.595Z,28.70
2022-07-27T16:10:29.959Z,28.60
2022-07-27T16:12:57.764Z,28.40
2022-07-27T16:15:44.771Z,28.30
2022-07-27T16:18:12.121Z,28.30
2022-07-27T16:20:39.278Z,28.10
2022-07-27T16:23:17.643Z,28.20
2022-07-27T16:26:07.658Z,28.10
2022-07-27T16:28:44.183Z,28.40
2022-07-27T16:31:14.040Z,28.30
2022-07-27T16:33:46.947Z,28.30
2022-07-27T16:36:13.993Z,28.00
2022-07-27T16:38:49.892Z,28.00
2022-07-27T16:41:21.816Z,27.90
2022-07-27T16:43:49.726Z,27.80
2022-07-27T16:46:17.164Z,27.50
2022-07-27T16:48:45.314Z,27.50
2022-07-27T16:51:17.054Z,27.50
2022-07-27T16:53:48.168Z,27.40
2022-07-27T16:56:15.863Z,27.30
2022-07-27T16:58:44.505Z,27.60
2022-07-27T17:01:21.826Z,27.70
2022-07-27T17:03:54.859Z,27.70
2022-07-27T17:06:22.590Z,27.90
2022-07-27T17:08:49.595Z,27.80
2022-07-27T17:11:20.827Z,27.60
2022-07-27T17:13:49.794Z,27.30
2022-07-27T17:16:17.597Z,26.90
2022-07-27T17:18:44.724Z,26.80
2022-07-27T17:21:15.047Z,26.60
2022-07-27T17:23:43.980Z,26.20
2022-07-27T17:26:12.574Z,26.50
2022-07-27T17:28:40.604Z,26.40
2022-07-27T17:31:09.895Z,26.20
2022-07-27T17:33:37.876Z,26.20
2022-07-27T17:36:09.563Z,26.00
2022-07-27T17:38:39.328Z,25.70
2022-07-27T17:41:06.352Z,25.50
2022-07-27T17:43:38.548Z,25.40
2022-07-27T17:46:10.305Z,25.20
2022-07-27T17:48:38.455Z,25.10
2022-07-27T17:51:07.076Z,24.90
2022-07-27T17:53:34.631Z,24.80
2022-07-27T17:56:02.856Z,24.60
2022-07-27T17:58:30.567Z,24.50
2022-07-27T18:00:57.786Z,24.40
2022-07-27T18:03:25.190Z,24.40
2022-07-27T18:05:52.133Z,24.40
2022-07-27T18:08:19.335Z,24.30
2022-07-27T18:10:46.403Z,24.20
2022-07-27T18:13:13.347Z,24.20
2022-07-27T18:15:50.488Z,24.20
2022-07-27T18:18:21.994Z,24.10
2022-07-27T18:20:52.415Z,24.10
2022-07-27T18:23:22.686Z,24.20
2022-07-27T18:25:50.941Z,24.00
2022-07-27T18:28:19.052Z,24.00
2022-07-27T18:30:47.433Z,24.00
2022-07-27T18:33:15.228Z,23.90
2022-07-27T18:35:43.405Z,23.80
2022-07-27T18:38:10.889Z,23.60
2022-07-27T18:40:39.886Z,23.70
2022-07-27T18:43:10.807Z,23.90
2022-07-27T18:45:39.159Z,23.70
2022-07-27T18:48:10.762Z,23.50
2022-07-27T18:50:39.684Z,23.70
2022-07-27T18:53:07.918Z,23.50
2022-07-27T18:55:34.977Z,23.40
2022-07-27T18:58:02.080Z,23.30
2022-07-27T19:00:29.611Z,23.20
2022-07-27T19:02:58.079Z,23.40
2022-07-27T19:05:32.490Z,23.40
2022-07-27T19:08:13.418Z,23.30
2022-07-27T19:10:44.587Z,23.20
2022-07-27T19:13:12.272Z,23.20
2022-07-27T19:15:39.818Z,23.00
2022-07-27T19:18:08.021Z,22.90
2022-07-27T19:20:36.830Z,22.80
2022-07-27T19:23:05.543Z,22.80
2022-07-27T19:25:33.925Z,22.70
2022-07-27T19:28:01.573Z,22.60
2022-07-27T19:30:28.480Z,22.40
2022-07-27T19:32:56.442Z,22.20
2022-07-27T19:35:23.790Z,22.10
2022-07-27T19:37:51.018Z,22.20
2022-07-27T19:40:44.033Z,22.10
2022-07-27T19:43:06.225Z,22.00
2022-07-27T19:45:36.767Z,21.80
2022-07-27T19:48:05.605Z,21.90
2022-07-27T19:50:32.647Z,22.00
2022-07-27T19:52:59.950Z,22.00
2022-07-27T19:55:26.829Z,21.80
2022-07-27T19:57:54.071Z,21.70
2022-07-27T20:00:21.293Z,21.80
2022-07-27T20:02:48.400Z,21.80
2022-07-27T20:05:15.482Z,21.80
2022-07-27T20:07:46.629Z,21.70
2022-07-27T20:10:13.498Z,21.80
2022-07-27T20:12:40.750Z,21.60
2022-07-27T20:15:08.656Z,21.60
2022-07-27T20:17:40.789Z,21.70
2022-07-27T20:20:09.109Z,21.70
2022-07-27T20:22:36.140Z,21.60
2022-07-27T20:25:03.200Z,21.50
2022-07-27T20:27:30.021Z,21.50
2022-07-27T20:29:57.020Z,21.40
2022-07-27T20:32:23.973Z,21.40
2022-07-27T20:34:50.900Z,21.40
2022-07-27T20:37:17.921Z,21.30
2022-07-27T20:39:44.997Z,21.20
2022-07-27T20:42:11.897Z,21.30
2022-07-27T20:44:38.773Z,21.20
2022-07-27T20:47:08.137Z,21.00
2022-07-27T20:49:35.381Z,21.00
2022-07-27T20:52:02.282Z,21.10
2022-07-27T20:54:29.921Z,20.90
2022-07-27T20:56:57.369Z,20.60
2022-07-27T20:59:24.538Z,20.70
2022-07-27T21:01:51.912Z,20.60
2022-07-27T21:04:19.294Z,20.50
2022-07-27T21:06:46.765Z,20.40
2022-07-27T21:09:14.436Z,20.40
2022-07-27T21:11:41.881Z,20.40
2022-07-27T21:14:09.691Z,20.50
2022-07-27T21:16:37.274Z,20.50
2022-07-27T21:19:04.161Z,20.60
2022-07-27T21:21:31.124Z,20.40
2022-07-27T21:24:17.299Z,20.50
2022-07-27T21:26:48.691Z,20.60
2022-07-27T21:29:16.013Z,20.80
2022-07-27T21:31:46.538Z,20.50
2022-07-27T21:34:16.472Z,20.50
2022-07-27T21:36:45.145Z,20.50
2022-07-27T21:39:12.288Z,20.50
2022-07-27T21:41:39.852Z,20.50
2022-07-27T21:44:07.267Z,20.30
2022-07-27T21:46:35.325Z,20.20
2022-07-27T21:49:02.396Z,20.30
2022-07-27T21:51:29.908Z,20.50
2022-07-27T21:53:57.240Z,20.40
2022-07-27T21:56:24.758Z,20.40
2022-07-27T21:58:51.959Z,20.10
2022-07-27T22:01:19.642Z,20.00
2022-07-27T22:03:47.023Z,19.90
2022-07-27T22:06:13.972Z,19.90
2022-07-27T22:08:40.931Z,19.90
2022-07-27T22:11:07.940Z,19.80
2022-07-27T22:13:35.372Z,19.70
2022-07-27T22:16:02.628Z,19.60
2022-07-27T22:18:29.661Z,19.80
2022-07-27T22:20:57.443Z,19.70
2022-07-27T22:23:24.396Z,19.60
2022-07-27T22:25:51.773Z,19.70
2022-07-27T22:28:18.639Z,19.50
2022-07-27T22:31:12.408Z,19.60
2022-07-27T22:33:34.540Z,19.50
2022-07-27T22:36:01.290Z,19.60
2022-07-27T22:38:28.263Z,19.60
2022-07-27T22:40:55.922Z,19.50
2022-07-27T22:43:23.210Z,19.50
2022-07-27T22:45:51.964Z,19.50
2022-07-27T22:48:19.140Z,19.50
2022-07-27T22:50:46.277Z,19.50
2022-07-27T22:53:14.774Z,19.60
2022-07-27T22:55:42.060Z,19.60
2022-07-27T22:58:09.016Z,19.50
2022-07-27T23:00:35.913Z,19.50
2022-07-27T23:03:02.816Z,19.30
2022-07-27T23:05:29.837Z,19.20
2022-07-27T23:07:56.744Z,19.10
2022-07-27T23:10:42.104Z,19.20
2022-07-27T23:13:09.097Z,19.20
2022-07-27T23:15:38.060Z,19.20
2022-07-27T23:18:06.986Z,19.20
2022-07-27T23:20:34.190Z,19.10
2022-07-27T23:23:01.250Z,19.20
2022-07-27T23:25:36.058Z,19.10
2022-07-27T23:28:04.242Z,18.90
2022-07-27T23:30:31.271Z,19.00
2022-07-27T23:32:58.140Z,19.00
2022-07-27T23:35:25.180Z,18.90
2022-07-27T23:37:52.275Z,19.00
2022-07-27T23:40:19.366Z,18.80
2022-07-27T23:42:46.242Z,18.80
2022-07-27T23:45:13.210Z,18.70
2022-07-27T23:47:40.342Z,18.80
2022-07-27T23:50:08.726Z,18.80
2022-07-27T23:52:36.484Z,18.80
2022-07-27T23:55:05.069Z,18.70
2022-07-27T23:57:32.187Z,18.70
2022-07-27T23:59:59.049Z,18.60
